KJFK/JFK METAR and TAF weather

Enter ICAO airport designator
Station Type Date Time Source
KJFK METAR 2020/04/01 22:51 UTC NOAA

KJFK 012251Z 35015KT 10SM SCT070 BKN250 12/M03 A2973 RMK AO2 SLP066 T01171028


Station Type Date Time Source
KJFK Decoded METAR 2020/04/01 22:51 UTC NOAA

KENNEDY INTERNATIONAL AIRPORT , NY, United States (KJFK) 40-38N 073-46W 9M
Apr 01, 2020 - 06:51 PM EDT / 2020.04.01 2251 UTC
Wind: from the N (350 degrees) at 17 MPH (15 KT):0
Visibility: 10 mile(s):0
Sky conditions: mostly cloudy
Temperature: 53.1 F (11.7 C)
Dew Point: 27.0 F (-2.8 C)
Relative Humidity: 36%
Pressure (altimeter): 29.73 in. Hg (1006 hPa)
ob: KJFK 012251Z 35015KT 10SM SCT070 BKN250 12/M03 A2973 RMK AO2 SLP066 T01171028
cycle: 23

Station Type Date Time Source
KJFK TAF 2020/04/01 20:57 UTC NOAA

TAF
AMD KJFK 011954Z 0120/0224 35013G20KT P6SM SCT060
FM012300 34009KT P6SM FEW050
FM020600 33014KT P6SM SCT045
FM021200 33020G28KT P6SM SCT045
FM021800 33023G32KT P6SM BKN045

Example: see airport list